Time;durP1;ratioP1;P1;durP2;ratioP2;P2;SDS_P1;SDS_P2;PMS_P1;PMS_P2;Temp;Humidity;BMP_temperature;BMP_pressure;BME280_temperature;BME280_humidity;BME280_pressure;Samples;Min_cycle;Max_cycle;Signal;HPM_P1;HPM_P2
2021/07/15 00:00:45;;;;;;;2.80;1.90;;;20.50;84.00;;;;;;6323346;28;20561;-62
2021/07/15 00:03:50;;;;;;;1.80;1.50;;;20.50;84.40;;;;;;6323160;28;20222;-62
2021/07/15 00:07:11;;;;;;;1.83;1.70;;;20.40;85.10;;;;;;6325328;27;20203;-62
2021/07/15 00:10:21;;;;;;;2.07;1.87;;;20.30;85.20;;;;;;6325340;28;20198;-62
2021/07/15 00:13:24;;;;;;;2.93;2.27;;;20.30;85.50;;;;;;6349113;28;20205;-61
2021/07/15 00:16:28;;;;;;;3.93;2.17;;;20.30;86.30;;;;;;6348536;28;20229;-62
2021/07/15 00:19:33;;;;;;;4.63;2.70;;;20.20;86.30;;;;;;6348823;28;20225;-62
2021/07/15 00:22:36;;;;;;;3.10;2.80;;;20.30;86.20;;;;;;6349100;27;20813;-62
2021/07/15 00:25:40;;;;;;;2.93;2.60;;;20.30;86.30;;;;;;6349620;28;20674;-62
2021/07/15 00:28:43;;;;;;;4.60;3.10;;;20.30;86.40;;;;;;6349733;27;20221;-62
2021/07/15 00:31:47;;;;;;;3.77;2.30;;;20.30;86.70;;;;;;6349723;28;20236;-62
2021/07/15 00:34:55;;;;;;;3.20;2.43;;;20.30;87.00;;;;;;6346405;27;20240;-62
2021/07/15 00:37:58;;;;;;;3.43;2.30;;;20.30;86.40;;;;;;6350212;27;20229;-62
2021/07/15 00:41:02;;;;;;;4.40;2.40;;;20.30;86.50;;;;;;6349079;27;20238;-70
2021/07/15 00:44:06;;;;;;;3.47;2.63;;;20.30;86.70;;;;;;6349323;27;20579;-62
2021/07/15 00:47:09;;;;;;;6.37;2.90;;;20.30;87.00;;;;;;6350067;27;20228;-62
2021/07/15 00:50:15;;;;;;;3.33;2.50;;;20.30;87.40;;;;;;6349923;27;20233;-62
2021/07/15 00:53:19;;;;;;;3.17;2.27;;;20.30;87.20;;;;;;6349935;27;20222;-59
2021/07/15 00:56:23;;;;;;;2.40;2.20;;;20.20;87.20;;;;;;6349593;27;20229;-60
2021/07/15 00:59:26;;;;;;;3.57;2.67;;;20.20;87.10;;;;;;6349862;27;20225;-59
2021/07/15 01:02:29;;;;;;;3.07;2.57;;;20.20;87.70;;;;;;6349598;27;20229;-63
2021/07/15 01:05:37;;;;;;;2.60;2.40;;;20.10;87.90;;;;;;6348902;28;20682;-70
2021/07/15 01:08:40;;;;;;;3.90;2.40;;;20.10;88.20;;;;;;6348824;27;20230;-62
2021/07/15 01:11:56;;;;;;;4.00;2.50;;;20.10;87.90;;;;;;6349801;27;20229;-62
2021/07/15 01:15:07;;;;;;;4.07;2.47;;;20.10;88.00;;;;;;6348767;27;20683;-62
2021/07/15 01:18:19;;;;;;;2.93;2.73;;;20.10;88.20;;;;;;6349363;27;20240;-62
2021/07/15 01:21:56;;;;;;;2.63;2.43;;;20.10;88.80;;;;;;6349194;27;20285;-62
2021/07/15 01:25:41;;;;;;;2.60;2.00;;;20.00;88.50;;;;;;6348718;27;20271;-62
2021/07/15 01:29:18;;;;;;;3.30;2.30;;;20.00;88.80;;;;;;6349421;27;20222;-62
2021/07/15 01:32:26;;;;;;;3.23;2.50;;;19.90;89.30;;;;;;6315153;27;20241;-62
2021/07/15 01:35:32;;;;;;;4.03;2.77;;;19.80;89.50;;;;;;6348757;27;20230;-62
2021/07/15 01:38:38;;;;;;;2.50;2.20;;;19.80;89.50;;;;;;6349432;27;20228;-62
2021/07/15 01:41:44;;;;;;;2.63;2.40;;;19.70;89.80;;;;;;6349093;27;20221;-62
2021/07/15 01:44:49;;;;;;;3.23;2.80;;;19.70;90.00;;;;;;6349017;27;20667;-62
2021/07/15 01:47:54;;;;;;;2.70;2.00;;;19.70;89.90;;;;;;6348928;27;20243;-63
2021/07/15 01:50:59;;;;;;;2.73;2.10;;;19.70;89.80;;;;;;6348757;27;20300;-62
2021/07/15 01:54:02;;;;;;;2.03;1.70;;;19.70;89.40;;;;;;6348913;27;20233;-62
2021/07/15 01:57:07;;;;;;;2.23;2.00;;;19.60;89.40;;;;;;6348638;27;20311;-62
2021/07/15 02:00:11;;;;;;;2.37;2.17;;;19.60;90.00;;;;;;6334915;27;20679;-62
2021/07/15 02:03:17;;;;;;;2.77;2.23;;;19.50;90.10;;;;;;6348662;27;20233;-63
2021/07/15 02:06:22;;;;;;;2.50;1.83;;;19.40;90.30;;;;;;6348826;27;20230;-62
2021/07/15 02:09:27;;;;;;;4.63;2.30;;;19.40;90.30;;;;;;6348322;27;20690;-62
2021/07/15 02:12:30;;;;;;;2.23;2.03;;;19.30;90.50;;;;;;6348794;27;20237;-62
2021/07/15 02:15:36;;;;;;;3.27;2.30;;;19.30;90.50;;;;;;6347921;27;20568;-63
2021/07/15 02:18:42;;;;;;;2.40;1.90;;;19.20;90.70;;;;;;6348628;27;20471;-62
2021/07/15 02:21:47;;;;;;;5.13;2.80;;;19.20;91.20;;;;;;6348338;27;20229;-62
2021/07/15 02:24:50;;;;;;;3.00;2.40;;;19.10;91.20;;;;;;6348899;27;20237;-62
2021/07/15 02:27:55;;;;;;;2.13;1.93;;;19.00;91.30;;;;;;6348395;27;20225;-62
2021/07/15 02:31:02;;;;;;;2.67;2.47;;;19.00;91.40;;;;;;6348571;27;20229;-62
2021/07/15 02:34:11;;;;;;;2.77;2.40;;;18.90;91.80;;;;;;6348187;27;20225;-62
2021/07/15 02:37:15;;;;;;;2.73;2.30;;;18.90;92.00;;;;;;6348507;27;20448;-62
2021/07/15 02:40:18;;;;;;;2.60;2.40;;;19.00;92.00;;;;;;6348538;27;20206;-62
2021/07/15 02:43:22;;;;;;;3.00;2.40;;;19.10;92.10;;;;;;6348746;27;20450;-62
2021/07/15 02:46:25;;;;;;;2.70;2.50;;;19.10;92.00;;;;;;6351891;27;20236;-62
2021/07/15 02:49:30;;;;;;;1.60;1.50;;;19.10;91.70;;;;;;6353122;27;20232;-62
2021/07/15 02:52:33;;;;;;;2.37;2.17;;;19.10;91.70;;;;;;6353044;27;20461;-62
2021/07/15 02:55:36;;;;;;;2.33;1.90;;;19.10;91.80;;;;;;6352325;27;20781;-62
2021/07/15 02:58:50;;;;;;;2.20;2.00;;;19.00;91.80;;;;;;6353220;27;20225;-62
2021/07/15 03:02:07;;;;;;;3.57;2.73;;;19.00;92.00;;;;;;6343514;27;20474;-62
2021/07/15 03:05:15;;;;;;;2.83;2.10;;;18.90;92.50;;;;;;6352883;27;20480;-62
2021/07/15 03:08:24;;;;;;;2.70;1.97;;;18.80;92.60;;;;;;6352810;27;20471;-62
2021/07/15 03:11:34;;;;;;;3.73;2.47;;;18.90;92.70;;;;;;6352724;27;20567;-63
2021/07/15 03:14:39;;;;;;;4.23;2.20;;;19.00;92.60;;;;;;6352409;27;20221;-63
2021/07/15 03:17:46;;;;;;;4.90;2.20;;;19.10;92.50;;;;;;6351987;27;20537;-63
2021/07/15 03:20:52;;;;;;;5.23;2.43;;;19.10;92.60;;;;;;6352035;27;20468;-63
2021/07/15 03:23:59;;;;;;;2.40;2.20;;;19.20;92.70;;;;;;6352325;27;20236;-63
2021/07/15 03:27:04;;;;;;;2.40;2.20;;;19.20;92.60;;;;;;6351912;27;20225;-63
2021/07/15 03:30:09;;;;;;;4.80;2.17;;;19.30;92.50;;;;;;6352042;27;20221;-63
2021/07/15 03:33:13;;;;;;;4.57;2.03;;;19.30;92.50;;;;;;6351878;27;20587;-63
2021/07/15 03:36:18;;;;;;;3.23;2.93;;;19.20;92.20;;;;;;6351835;27;20229;-63
2021/07/15 03:39:22;;;;;;;3.67;2.20;;;19.30;92.20;;;;;;6351663;27;20237;-63
2021/07/15 03:42:28;;;;;;;3.33;2.27;;;19.30;92.20;;;;;;6351772;27;20579;-63
2021/07/15 03:45:32;;;;;;;2.67;2.10;;;19.30;92.20;;;;;;6351492;27;20478;-63
2021/07/15 03:48:37;;;;;;;3.40;1.90;;;19.30;92.20;;;;;;6351685;27;20229;-63
2021/07/15 03:51:42;;;;;;;2.60;2.13;;;19.30;92.20;;;;;;6351336;27;20489;-63
2021/07/15 03:54:46;;;;;;;3.50;1.93;;;19.20;92.10;;;;;;6351182;27;20233;-63
2021/07/15 03:57:51;;;;;;;4.37;2.10;;;19.20;92.40;;;;;;6350677;27;20311;-63
2021/07/15 04:00:59;;;;;;;2.13;1.77;;;19.10;92.80;;;;;;6351275;27;20240;-63
2021/07/15 04:04:07;;;;;;;3.60;2.17;;;19.10;93.00;;;;;;6346538;27;20238;-63
2021/07/15 04:07:14;;;;;;;2.90;2.70;;;19.10;93.00;;;;;;6349633;27;20225;-63
2021/07/15 04:10:18;;;;;;;2.33;2.13;;;19.10;93.20;;;;;;6350908;27;20420;-63
2021/07/15 04:13:22;;;;;;;2.10;2.00;;;19.10;93.10;;;;;;6350896;27;20205;-63
2021/07/15 04:16:44;;;;;;;3.80;2.50;;;19.10;93.30;;;;;;6350238;27;20366;-63
2021/07/15 04:19:48;;;;;;;3.20;2.60;;;19.10;93.40;;;;;;6351072;27;20474;-63
2021/07/15 04:22:55;;;;;;;2.80;2.20;;;19.10;93.40;;;;;;6350657;27;20217;-63
2021/07/15 04:25:58;;;;;;;2.60;2.40;;;19.20;93.50;;;;;;6350654;27;20232;-63
2021/07/15 04:29:03;;;;;;;3.70;2.30;;;19.40;93.40;;;;;;6350442;27;20486;-61
2021/07/15 04:32:18;;;;;;;4.50;2.80;;;19.50;93.20;;;;;;6350804;27;20221;-61
2021/07/15 04:35:23;;;;;;;3.80;2.70;;;19.60;92.90;;;;;;6350062;27;20980;-63
2021/07/15 04:38:28;;;;;;;3.73;2.50;;;19.80;92.70;;;;;;6350269;27;20571;-62
2021/07/15 04:41:31;;;;;;;4.57;3.27;;;20.00;92.60;;;;;;6349948;27;20225;-62
2021/07/15 04:44:35;;;;;;;3.13;2.83;;;20.00;92.50;;;;;;6350074;27;20230;-62
2021/07/15 04:47:42;;;;;;;2.60;2.20;;;20.00;92.50;;;;;;6350227;27;20233;-62
2021/07/15 04:50:47;;;;;;;3.20;2.40;;;20.00;92.50;;;;;;6350049;27;20690;-62
2021/07/15 04:53:52;;;;;;;3.53;3.20;;;20.10;92.60;;;;;;6349902;27;20690;-62
2021/07/15 04:56:56;;;;;;;7.20;3.17;;;20.20;92.60;;;;;;6349825;27;20225;-61
2021/07/15 05:00:00;;;;;;;2.50;2.30;;;20.40;92.60;;;;;;6350076;27;20237;-62
2021/07/15 05:03:18;;;;;;;4.63;2.80;;;20.40;92.60;;;;;;6350186;27;20262;-62
2021/07/15 05:06:22;;;;;;;3.37;2.70;;;20.50;92.40;;;;;;6344940;27;20239;-62
2021/07/15 05:09:27;;;;;;;5.47;3.00;;;20.50;92.50;;;;;;6349261;27;20742;-71
2021/07/15 05:12:30;;;;;;;4.53;3.23;;;20.70;92.30;;;;;;6349892;27;20225;-72
2021/07/15 05:15:34;;;;;;;4.67;2.67;;;20.80;91.90;;;;;;6348409;27;20568;-69
2021/07/15 05:18:37;;;;;;;4.10;2.90;;;21.00;91.80;;;;;;6324506;28;20245;-70
2021/07/15 05:21:40;;;;;;;3.20;2.77;;;21.10;91.60;;;;;;6324965;28;20234;-71
2021/07/15 05:24:45;;;;;;;3.90;2.60;;;21.20;91.50;;;;;;6323794;28;20230;-71
2021/07/15 05:27:48;;;;;;;7.90;3.53;;;21.30;91.00;;;;;;6323527;28;20234;-72
2021/07/15 05:30:51;;;;;;;5.70;2.80;;;21.40;90.90;;;;;;6323766;28;20230;-72
2021/07/15 05:33:55;;;;;;;2.87;2.57;;;21.60;90.60;;;;;;6323801;28;20268;-72
2021/07/15 05:36:58;;;;;;;4.30;2.80;;;21.70;90.40;;;;;;6324290;28;20230;-72
2021/07/15 05:40:04;;;;;;;2.77;2.53;;;21.70;90.50;;;;;;6323921;28;20226;-71
2021/07/15 05:43:07;;;;;;;3.77;2.57;;;21.80;90.30;;;;;;6324135;28;20226;-72
2021/07/15 05:46:11;;;;;;;3.83;2.63;;;21.80;90.40;;;;;;6323869;28;20233;-71
2021/07/15 05:49:14;;;;;;;4.10;3.40;;;21.80;90.30;;;;;;6324161;28;20198;-71
2021/07/15 05:52:17;;;;;;;3.50;2.87;;;21.90;89.70;;;;;;6324128;28;20209;-71
2021/07/15 05:55:22;;;;;;;3.33;2.80;;;22.10;89.80;;;;;;6323719;28;20223;-71
2021/07/15 05:58:26;;;;;;;5.60;2.90;;;22.30;89.30;;;;;;6324067;28;20194;-71
2021/07/15 06:01:29;;;;;;;4.10;2.70;;;22.40;88.30;;;;;;6323514;28;20289;-71
2021/07/15 06:04:32;;;;;;;5.07;2.80;;;22.60;87.10;;;;;;6324107;28;20230;-71
2021/07/15 06:07:37;;;;;;;3.20;2.80;;;22.90;86.10;;;;;;6323512;28;20237;-72
2021/07/15 06:10:41;;;;;;;3.73;2.50;;;23.30;83.90;;;;;;6319256;28;20226;-59
2021/07/15 06:13:45;;;;;;;3.40;2.50;;;23.70;82.20;;;;;;6323186;28;20237;-59
2021/07/15 06:16:48;;;;;;;3.10;2.60;;;24.20;81.70;;;;;;6323101;28;20667;-59
2021/07/15 06:19:53;;;;;;;4.70;2.20;;;24.80;79.60;;;;;;6326759;28;20301;-59
2021/07/15 06:22:56;;;;;;;3.10;2.50;;;25.30;78.20;;;;;;6328489;28;20225;-59
2021/07/15 06:26:02;;;;;;;5.40;3.40;;;26.00;74.80;;;;;;6327645;28;20717;-59
2021/07/15 06:29:06;;;;;;;3.90;3.10;;;26.20;72.40;;;;;;6327741;28;20324;-62
2021/07/15 06:32:09;;;;;;;2.97;2.63;;;26.20;72.00;;;;;;6328115;28;20262;-62
2021/07/15 06:35:15;;;;;;;3.80;2.80;;;26.10;73.00;;;;;;6327668;28;20253;-62
2021/07/15 06:38:19;;;;;;;4.20;3.10;;;26.40;72.50;;;;;;6327681;28;20230;-61
2021/07/15 06:41:23;;;;;;;3.07;2.60;;;26.30;71.50;;;;;;6327257;28;20541;-61
2021/07/15 06:44:27;;;;;;;3.53;3.13;;;26.50;71.70;;;;;;6327718;28;20245;-61
2021/07/15 06:47:30;;;;;;;3.47;2.93;;;27.50;69.00;;;;;;6327402;28;20229;-62
2021/07/15 06:50:33;;;;;;;2.90;2.40;;;28.00;65.90;;;;;;6327587;28;20623;-62
2021/07/15 06:53:37;;;;;;;2.60;2.40;;;27.80;64.40;;;;;;6327199;28;20236;-62
2021/07/15 06:56:41;;;;;;;3.07;2.50;;;27.30;66.40;;;;;;6327318;28;20233;-62
2021/07/15 06:59:44;;;;;;;4.57;2.50;;;27.90;65.20;;;;;;6327159;28;20682;-62
2021/07/15 07:02:48;;;;;;;3.37;2.10;;;28.60;60.30;;;;;;6327377;28;20263;-62
2021/07/15 07:05:51;;;;;;;3.70;2.37;;;28.30;59.20;;;;;;6326967;28;20233;-62
2021/07/15 07:08:54;;;;;;;3.20;2.23;;;29.00;58.40;;;;;;6326990;28;20607;-62
2021/07/15 07:11:59;;;;;;;3.30;2.00;;;29.80;57.20;;;;;;6326789;28;20221;-63
2021/07/15 07:15:03;;;;;;;4.30;2.40;;;30.90;55.10;;;;;;6317740;28;20248;-72
2021/07/15 07:18:06;;;;;;;2.70;2.07;;;31.80;53.20;;;;;;6327660;28;20233;-72
2021/07/15 07:21:10;;;;;;;4.00;2.13;;;32.00;51.10;;;;;;6333763;28;20240;-72
2021/07/15 07:24:13;;;;;;;2.28;2.05;;;32.80;50.70;;;;;;6326720;28;20546;-63
2021/07/15 07:27:17;;;;;;;1.98;1.77;;;32.90;49.10;;;;;;6326753;28;20564;-72
2021/07/15 07:30:23;;;;;;;2.30;1.80;;;33.50;46.30;;;;;;6326729;28;20226;-73
2021/07/15 07:33:26;;;;;;;2.03;1.90;;;33.70;45.30;;;;;;6327145;28;20225;-72
2021/07/15 07:36:29;;;;;;;2.42;2.15;;;34.10;45.10;;;;;;6326593;27;20671;-72
2021/07/15 07:39:32;;;;;;;3.70;1.90;;;34.30;44.40;;;;;;6326145;28;20225;-73
2021/07/15 07:42:37;;;;;;;2.05;1.80;;;34.70;43.90;;;;;;6326717;28;20236;-72
2021/07/15 07:45:41;;;;;;;1.83;1.52;;;36.10;42.10;;;;;;6326094;28;20233;-73
2021/07/15 07:48:44;;;;;;;4.80;1.83;;;37.30;40.40;;;;;;6326344;28;20221;-73
2021/07/15 07:51:47;;;;;;;3.25;2.20;;;36.60;40.40;;;;;;6325972;28;20310;-73
2021/07/15 07:54:51;;;;;;;1.80;1.50;;;37.30;39.40;;;;;;6325779;28;20244;-72
2021/07/15 07:57:55;;;;;;;2.80;1.77;;;36.50;38.80;;;;;;6325833;28;20551;-72
2021/07/15 08:00:58;;;;;;;1.65;1.55;;;36.50;38.80;;;;;;6325776;28;20683;-72
2021/07/15 08:04:03;;;;;;;1.83;1.63;;;36.50;38.70;;;;;;6326012;28;20320;-73
2021/07/15 08:07:09;;;;;;;2.85;1.70;;;36.00;38.80;;;;;;6325306;28;20228;-73
2021/07/15 08:10:13;;;;;;;1.83;1.55;;;35.30;40.00;;;;;;6325600;28;20202;-72
2021/07/15 08:13:18;;;;;;;6.38;2.65;;;34.70;41.00;;;;;;6324940;28;20217;-74
2021/07/15 08:16:21;;;;;;;1.92;1.73;;;34.40;40.80;;;;;;6320761;28;20258;-74
2021/07/15 08:19:24;;;;;;;3.40;2.10;;;33.80;42.20;;;;;;6324995;28;20236;-72
2021/07/15 08:22:28;;;;;;;2.85;2.42;;;33.30;42.70;;;;;;6325462;28;20221;-72
2021/07/15 08:25:31;;;;;;;1.80;1.70;;;33.00;43.10;;;;;;6325459;28;20244;-71
2021/07/15 08:28:36;;;;;;;1.95;1.67;;;32.30;43.90;;;;;;6326747;28;20260;-71
2021/07/15 08:31:39;;;;;;;2.47;2.15;;;31.10;45.80;;;;;;6325949;28;20228;-72
2021/07/15 08:34:43;;;;;;;2.63;1.65;;;31.00;46.50;;;;;;6325965;28;20671;-72
2021/07/15 08:37:46;;;;;;;3.20;1.50;;;30.80;46.80;;;;;;6325235;28;20304;-71
2021/07/15 08:40:50;;;;;;;2.43;1.53;;;30.50;47.00;;;;;;6344657;28;20217;-71
2021/07/15 08:43:55;;;;;;;2.60;1.47;;;29.80;47.20;;;;;;6345205;27;20589;-73
2021/07/15 08:47:01;;;;;;;7.40;2.17;;;29.50;47.40;;;;;;6349601;28;20232;-73
2021/07/15 08:50:05;;;;;;;1.70;1.50;;;28.70;47.70;;;;;;6350079;28;20256;-73
2021/07/15 08:53:09;;;;;;;2.37;1.80;;;27.40;50.40;;;;;;6347361;27;20229;-71
2021/07/15 08:59:36;;;;;;;1.40;1.30;;;27.40;50.90;;;;;;6341097;27;20229;-69
2021/07/15 09:02:40;;;;;;;1.80;1.50;;;27.40;50.60;;;;;;6349757;27;20235;-61
2021/07/15 09:05:46;;;;;;;2.27;1.57;;;27.50;52.30;;;;;;6349518;27;20236;-62
2021/07/15 09:08:53;;;;;;;1.97;1.30;;;27.70;50.70;;;;;;6349151;27;20232;-62
2021/07/15 09:11:56;;;;;;;5.50;2.50;;;28.10;49.90;;;;;;6349525;27;20232;-62
2021/07/15 09:15:08;;;;;;;3.63;1.70;;;28.50;49.10;;;;;;6347454;27;20616;-63
2021/07/15 09:18:13;;;;;;;1.33;1.23;;;28.30;48.70;;;;;;6323937;28;20605;-60
2021/07/15 09:21:27;;;;;;;2.13;1.60;;;28.30;48.70;;;;;;6319304;28;20230;-63
2021/07/15 09:24:33;;;;;;;2.60;2.10;;;28.20;48.80;;;;;;6323846;28;20252;-60
2021/07/15 09:27:36;;;;;;;3.50;2.00;;;27.80;50.20;;;;;;6323785;28;20249;-62
2021/07/15 09:30:43;;;;;;;3.37;2.03;;;28.10;50.50;;;;;;6323925;28;20322;-63
2021/07/15 09:33:47;;;;;;;2.23;1.97;;;28.40;49.60;;;;;;6335294;28;20670;-60
2021/07/15 09:36:52;;;;;;;1.90;1.70;;;28.40;49.50;;;;;;6348878;27;20221;-63
2021/07/15 09:39:56;;;;;;;1.50;1.30;;;28.50;49.30;;;;;;6348691;27;20244;-63
2021/07/15 09:43:15;;;;;;;3.63;1.93;;;28.50;49.90;;;;;;6343050;27;20228;-64
2021/07/15 09:46:23;;;;;;;1.60;1.50;;;28.60;50.50;;;;;;6348227;27;20232;-61
2021/07/15 09:49:30;;;;;;;2.97;2.03;;;28.40;51.00;;;;;;6344498;28;20676;-60
2021/07/15 09:52:34;;;;;;;2.20;1.80;;;27.90;51.80;;;;;;6323751;28;20221;-64
2021/07/15 09:55:37;;;;;;;4.30;2.40;;;27.70;51.70;;;;;;6327826;28;20240;-64
2021/07/15 09:58:42;;;;;;;3.90;1.77;;;27.70;52.10;;;;;;6328505;28;20240;-67
2021/07/15 10:01:48;;;;;;;2.33;1.90;;;27.80;52.60;;;;;;6345392;28;20294;-60
2021/07/15 10:04:59;;;;;;;6.17;2.10;;;28.00;52.90;;;;;;6353380;27;20217;-61
2021/07/15 10:08:04;;;;;;;3.73;2.13;;;28.10;51.70;;;;;;6353880;27;20216;-62
2021/07/15 10:11:17;;;;;;;3.03;2.17;;;28.30;51.70;;;;;;6354072;27;20240;-63
2021/07/15 10:14:30;;;;;;;3.70;1.63;;;28.60;51.20;;;;;;6353374;27;20580;-60
2021/07/15 10:17:46;;;;;;;2.90;2.00;;;28.90;51.10;;;;;;6352884;27;20235;-60
2021/07/15 10:20:56;;;;;;;3.70;2.03;;;29.00;50.90;;;;;;6328419;28;20226;-59
2021/07/15 10:24:14;;;;;;;3.60;1.67;;;29.00;50.30;;;;;;6323344;28;20225;-61
2021/07/15 10:27:18;;;;;;;2.83;2.23;;;28.60;50.30;;;;;;6327991;28;20237;-63
2021/07/15 10:30:22;;;;;;;2.77;1.90;;;28.80;50.40;;;;;;6327731;28;20666;-65
2021/07/15 10:33:28;;;;;;;3.20;2.20;;;29.10;49.70;;;;;;6327741;28;20225;-60
2021/07/15 10:36:32;;;;;;;2.40;2.10;;;29.20;49.60;;;;;;6329579;28;20231;-63
2021/07/15 10:39:37;;;;;;;2.27;2.07;;;29.10;50.30;;;;;;6335598;27;20233;-62
2021/07/15 10:42:41;;;;;;;2.20;1.93;;;29.30;50.40;;;;;;6348339;27;20228;-62
2021/07/15 10:45:45;;;;;;;3.10;2.27;;;29.40;50.00;;;;;;6341229;27;20232;-62
2021/07/15 10:48:50;;;;;;;4.53;2.20;;;28.90;49.80;;;;;;6326650;28;20282;-62
2021/07/15 10:51:56;;;;;;;2.50;2.20;;;29.10;49.80;;;;;;6352266;27;20238;-62
2021/07/15 10:55:00;;;;;;;3.70;2.23;;;29.50;49.30;;;;;;6334076;27;20566;-62
2021/07/15 10:58:04;;;;;;;5.13;2.40;;;30.00;47.60;;;;;;6326795;28;20232;-62
2021/07/15 11:01:08;;;;;;;2.80;2.00;;;29.90;46.60;;;;;;6326523;28;20230;-62
2021/07/15 11:04:14;;;;;;;3.00;1.70;;;30.10;46.40;;;;;;6301110;28;20244;-62
2021/07/15 11:07:21;;;;;;;7.13;2.40;;;29.60;47.50;;;;;;6300354;28;20201;-62
2021/07/15 11:10:25;;;;;;;2.37;2.13;;;29.80;47.10;;;;;;6305229;28;20189;-63
2021/07/15 11:13:29;;;;;;;4.27;2.70;;;30.00;46.40;;;;;;6326323;28;20205;-62
2021/07/15 11:16:53;;;;;;;2.30;2.00;;;30.20;46.60;;;;;;6329478;28;20300;-62
2021/07/15 11:20:01;;;;;;;2.77;2.30;;;30.20;46.30;;;;;;6341012;27;20550;-62
2021/07/15 11:23:20;;;;;;;2.22;2.03;;;30.60;46.10;;;;;;6326047;28;20697;-62
2021/07/15 11:26:30;;;;;;;3.00;2.17;;;30.60;45.60;;;;;;6326228;28;20230;-62
2021/07/15 11:29:49;;;;;;;2.78;1.95;;;30.70;45.20;;;;;;6321896;28;20686;-62
2021/07/15 11:32:52;;;;;;;4.87;2.13;;;30.60;46.20;;;;;;6339904;28;20678;-64
2021/07/15 11:36:00;;;;;;;4.83;1.80;;;30.60;45.90;;;;;;6337046;27;20558;-62
2021/07/15 11:39:05;;;;;;;2.37;2.00;;;30.00;46.70;;;;;;6324445;28;20237;-62
2021/07/15 11:42:18;;;;;;;2.60;1.93;;;29.80;47.40;;;;;;6324133;28;20218;-59
2021/07/15 11:45:22;;;;;;;3.00;2.17;;;29.60;47.60;;;;;;6323872;28;20233;-64
2021/07/15 11:48:44;;;;;;;3.40;2.00;;;29.40;47.90;;;;;;6342854;28;20225;-62
2021/07/15 11:52:00;;;;;;;3.40;2.50;;;29.40;47.80;;;;;;6326953;27;20706;-64
2021/07/15 11:55:12;;;;;;;3.40;2.40;;;29.20;48.50;;;;;;6324999;28;20229;-63
2021/07/15 11:58:46;;;;;;;2.27;2.10;;;29.20;48.60;;;;;;6325531;28;20648;-66
2021/07/15 12:02:04;;;;;;;3.57;2.17;;;29.10;48.70;;;;;;6330188;28;20564;-63
2021/07/15 12:05:18;;;;;;;3.60;2.20;;;29.30;48.40;;;;;;6343464;27;20330;-64
2021/07/15 12:08:23;;;;;;;2.50;2.30;;;29.50;48.30;;;;;;6325690;28;20221;-64
2021/07/15 12:11:26;;;;;;;2.30;2.03;;;29.70;48.30;;;;;;6325926;28;20229;-63
2021/07/15 12:14:30;;;;;;;2.93;2.10;;;29.90;48.40;;;;;;6325556;28;20575;-64
2021/07/15 12:17:34;;;;;;;2.60;2.40;;;30.00;48.50;;;;;;6335919;28;20572;-63
2021/07/15 12:20:40;;;;;;;3.57;2.20;;;30.00;48.40;;;;;;6338737;27;20233;-63
2021/07/15 12:23:46;;;;;;;2.90;2.60;;;30.30;47.90;;;;;;6325356;28;20213;-63
2021/07/15 12:26:55;;;;;;;6.38;2.30;;;30.30;47.00;;;;;;6317070;28;20230;-63
2021/07/15 12:29:59;;;;;;;2.00;1.83;;;30.50;46.90;;;;;;6299890;28;20537;-64
2021/07/15 12:33:03;;;;;;;2.30;2.10;;;30.20;47.00;;;;;;6305669;28;20233;-63
2021/07/15 12:36:11;;;;;;;2.80;2.13;;;30.20;47.70;;;;;;6309194;28;20234;-65
2021/07/15 12:39:19;;;;;;;2.57;2.37;;;30.50;47.70;;;;;;6299570;28;20565;-65
2021/07/15 12:42:23;;;;;;;2.80;2.60;;;30.60;47.10;;;;;;6304082;28;20573;-63
2021/07/15 12:45:28;;;;;;;3.03;2.27;;;30.50;46.80;;;;;;6322246;28;20237;-63
2021/07/15 12:48:40;;;;;;;2.20;2.00;;;30.20;47.00;;;;;;6342218;28;20227;-66
2021/07/15 12:51:48;;;;;;;2.80;2.20;;;30.00;47.20;;;;;;6303443;28;20245;-62
2021/07/15 12:54:55;;;;;;;2.70;2.40;;;30.00;47.60;;;;;;6304412;28;20330;-63
2021/07/15 12:57:58;;;;;;;3.57;2.50;;;30.10;47.20;;;;;;6319311;28;20222;-64
2021/07/15 13:01:04;;;;;;;7.03;2.80;;;30.20;47.40;;;;;;6346140;28;20236;-63
2021/07/15 13:04:09;;;;;;;2.43;2.20;;;30.50;47.00;;;;;;6323308;28;20237;-67
2021/07/15 13:07:21;;;;;;;3.30;2.30;;;30.60;46.60;;;;;;6308728;28;20229;-66
2021/07/15 13:14:15;;;;;;;3.13;2.10;;;30.70;46.60;;;;;;6315793;28;20233;-66
2021/07/15 13:17:32;;;;;;;3.00;1.87;;;31.10;46.00;;;;;;6305489;28;20679;-66
2021/07/15 13:20:42;;;;;;;2.22;2.00;;;31.20;46.80;;;;;;6322474;28;20241;-65
2021/07/15 13:24:00;;;;;;;3.00;2.67;;;31.40;46.20;;;;;;6321579;28;20675;-66
2021/07/15 13:27:12;;;;;;;3.17;2.67;;;31.20;45.00;;;;;;6322196;28;20229;-65
2021/07/15 13:30:17;;;;;;;3.50;2.83;;;30.80;45.80;;;;;;6321273;28;20232;-65
2021/07/15 13:33:22;;;;;;;3.83;2.72;;;30.40;46.50;;;;;;6321801;28;20241;-64
2021/07/15 13:36:25;;;;;;;2.50;2.30;;;30.60;46.20;;;;;;6317152;28;20237;-63
2021/07/15 13:39:37;;;;;;;3.30;2.25;;;30.50;46.00;;;;;;6321852;28;20229;-64
2021/07/15 13:42:42;;;;;;;3.43;2.57;;;30.60;46.30;;;;;;6312273;28;20717;-62
2021/07/15 13:45:46;;;;;;;3.93;2.40;;;30.30;45.80;;;;;;6296360;28;20253;-67
2021/07/15 13:48:51;;;;;;;4.13;2.80;;;30.00;46.90;;;;;;6326085;28;20236;-62
2021/07/15 13:52:04;;;;;;;3.77;2.57;;;29.80;47.10;;;;;;6321083;27;20225;-63
2021/07/15 13:55:10;;;;;;;2.83;2.13;;;29.70;47.40;;;;;;6321195;28;20663;-62
2021/07/15 13:58:17;;;;;;;3.50;2.30;;;29.40;48.20;;;;;;6346052;28;20205;-63
2021/07/15 14:01:26;;;;;;;2.50;1.87;;;29.30;48.70;;;;;;6320301;28;20714;-63
2021/07/15 14:04:29;;;;;;;4.20;2.63;;;29.30;48.70;;;;;;6321411;28;20226;-62
2021/07/15 14:07:35;;;;;;;2.23;2.03;;;29.10;48.50;;;;;;6323617;28;20216;-62
2021/07/15 14:10:41;;;;;;;2.53;2.33;;;29.20;48.60;;;;;;6343057;28;20362;-67
2021/07/15 14:13:46;;;;;;;3.07;2.70;;;29.30;48.30;;;;;;6321141;28;20222;-65
2021/07/15 14:16:55;;;;;;;6.50;2.70;;;29.40;48.60;;;;;;6316763;28;20237;-65
2021/07/15 14:20:02;;;;;;;2.10;1.80;;;29.30;48.40;;;;;;6302841;28;20227;-64
2021/07/15 14:23:06;;;;;;;2.60;2.20;;;29.20;48.50;;;;;;6313980;27;20226;-65
2021/07/15 14:26:10;;;;;;;3.00;2.63;;;29.10;49.60;;;;;;6295092;28;20246;-66
2021/07/15 14:29:15;;;;;;;3.30;2.40;;;28.90;50.90;;;;;;6296168;28;20240;-65
2021/07/15 14:32:19;;;;;;;4.17;2.17;;;28.80;50.90;;;;;;6295820;28;20245;-65
2021/07/15 14:35:24;;;;;;;3.30;3.00;;;28.50;51.20;;;;;;6295889;28;20291;-64
2021/07/15 14:38:27;;;;;;;3.63;2.50;;;28.20;51.40;;;;;;6295935;28;20726;-65
2021/07/15 14:41:30;;;;;;;4.40;2.30;;;27.90;51.10;;;;;;6299788;28;20296;-62
2021/07/15 14:44:36;;;;;;;3.13;2.07;;;27.90;51.50;;;;;;6300301;28;20234;-67
2021/07/15 14:47:40;;;;;;;2.20;2.00;;;27.90;51.70;;;;;;6300299;28;20240;-65
2021/07/15 14:50:43;;;;;;;2.30;2.10;;;28.10;51.00;;;;;;6314163;28;20279;-62
2021/07/15 14:53:54;;;;;;;2.17;1.93;;;28.20;50.60;;;;;;6323734;28;20541;-62
2021/07/15 14:56:57;;;;;;;2.73;2.17;;;28.20;51.00;;;;;;6338410;28;20233;-62
2021/07/15 15:00:03;;;;;;;8.23;2.47;;;28.20;51.50;;;;;;6333437;27;20257;-62
2021/07/15 15:03:06;;;;;;;3.17;2.10;;;28.20;51.50;;;;;;6323631;28;20249;-61
2021/07/15 15:06:09;;;;;;;2.13;1.93;;;28.10;51.80;;;;;;6324276;28;20240;-61
2021/07/15 15:09:13;;;;;;;2.70;1.73;;;28.10;51.70;;;;;;6325168;28;20236;-61
2021/07/15 15:12:16;;;;;;;2.73;2.30;;;27.90;51.50;;;;;;6342034;28;20224;-62
2021/07/15 15:15:20;;;;;;;2.77;2.57;;;27.90;51.50;;;;;;6332250;27;20233;-61
2021/07/15 15:18:24;;;;;;;3.20;2.40;;;27.80;51.60;;;;;;6324235;28;20256;-61
2021/07/15 15:21:27;;;;;;;4.50;2.40;;;27.50;52.70;;;;;;6324197;28;20252;-61
2021/07/15 15:24:30;;;;;;;3.47;2.57;;;27.20;53.50;;;;;;6324513;28;20244;-61
2021/07/15 15:27:34;;;;;;;4.80;2.43;;;27.30;53.80;;;;;;6344121;28;20255;-61
2021/07/15 15:30:39;;;;;;;3.40;2.00;;;27.40;53.20;;;;;;6329381;27;20226;-62
2021/07/15 15:33:42;;;;;;;2.40;2.20;;;27.70;52.90;;;;;;6324552;28;20610;-62
2021/07/15 15:36:45;;;;;;;2.40;2.20;;;27.90;52.10;;;;;;6324500;28;20612;-62
2021/07/15 15:39:49;;;;;;;4.77;2.37;;;28.00;52.10;;;;;;6323994;28;20226;-61
2021/07/15 15:42:52;;;;;;;3.30;2.23;;;28.20;51.60;;;;;;6346718;27;20235;-61
2021/07/15 15:45:56;;;;;;;2.27;2.17;;;28.30;51.50;;;;;;6317075;27;20228;-61
2021/07/15 15:49:00;;;;;;;3.77;2.50;;;28.50;50.80;;;;;;6324019;28;20374;-62
2021/07/15 15:52:04;;;;;;;3.60;2.60;;;28.70;50.30;;;;;;6322955;28;20286;-61
2021/07/15 15:55:11;;;;;;;2.33;2.13;;;28.60;50.90;;;;;;6324075;28;20236;-63
2021/07/15 15:58:15;;;;;;;4.60;2.90;;;28.60;51.10;;;;;;6323241;28;20249;-63
2021/07/15 16:01:20;;;;;;;2.73;2.27;;;28.80;50.90;;;;;;6348918;28;20224;-62
2021/07/15 16:04:24;;;;;;;3.00;2.63;;;28.80;50.30;;;;;;6348344;28;20666;-63
2021/07/15 16:07:29;;;;;;;2.33;2.13;;;28.70;50.30;;;;;;6349071;28;20212;-61
2021/07/15 16:10:33;;;;;;;2.60;2.40;;;28.40;51.10;;;;;;6347944;28;20197;-62
2021/07/15 16:13:36;;;;;;;2.93;2.60;;;28.40;51.00;;;;;;6348672;28;20646;-62
2021/07/15 16:16:41;;;;;;;3.60;2.70;;;28.50;51.00;;;;;;6344313;27;20221;-62